createdAt,value
2023-02-14T00:01:25.811Z,166.90
2023-02-14T00:03:54.700Z,167.95
2023-02-14T00:06:22.465Z,315.63
2023-02-14T00:08:52.324Z,449.63
2023-02-14T00:11:20.141Z,812.40
2023-02-14T00:14:02.095Z,489.13
2023-02-14T00:16:31.552Z,514.92
2023-02-14T00:19:05.996Z,706.63
2023-02-14T00:21:36.958Z,165.80
2023-02-14T00:24:05.318Z,425.45
2023-02-14T00:26:33.186Z,626.88
2023-02-14T00:29:01.001Z,841.90
2023-02-14T00:31:28.902Z,932.35
2023-02-14T00:33:58.205Z,380.33
2023-02-14T00:36:26.406Z,309.20
2023-02-14T00:38:54.328Z,170.63
2023-02-14T00:41:22.319Z,230.55
2023-02-14T00:43:51.637Z,207.30
2023-02-14T00:46:20.486Z,196.68
2023-02-14T00:48:48.975Z,256.02
2023-02-14T00:51:18.828Z,270.63
2023-02-14T00:53:47.757Z,260.30
2023-02-14T00:56:16.416Z,200.02
2023-02-14T00:58:44.966Z,281.30
2023-02-14T01:01:13.511Z,558.42
2023-02-14T01:03:41.337Z,685.90
2023-02-14T01:06:10.001Z,565.92
2023-02-14T01:08:39.209Z,276.25
2023-02-14T01:11:12.756Z,511.48
2023-02-14T01:13:41.113Z,506.58
2023-02-14T01:16:10.935Z,864.28
2023-02-14T01:18:39.114Z,532.83
2023-02-14T01:21:15.720Z,515.50
2023-02-14T01:23:45.599Z,863.35
2023-02-14T01:26:13.934Z,427.70
2023-02-14T01:28:42.434Z,730.55
2023-02-14T01:31:13.307Z,803.53
2023-02-14T01:33:42.835Z,668.97
2023-02-14T01:36:17.035Z,405.50
2023-02-14T01:38:46.325Z,540.58
2023-02-14T01:41:14.799Z,597.35
2023-02-14T01:43:58.248Z,551.60
2023-02-14T01:46:27.286Z,312.00
2023-02-14T01:49:00.357Z,381.83
2023-02-14T01:51:28.554Z,283.10
2023-02-14T01:53:58.790Z,210.93
2023-02-14T01:56:33.458Z,468.08
2023-02-14T01:59:04.034Z,230.60
2023-02-14T02:01:32.598Z,585.92
2023-02-14T02:04:06.466Z,226.82
2023-02-14T02:06:38.921Z,553.17
2023-02-14T02:09:14.156Z,1007.90
2023-02-14T02:11:43.525Z,464.80
2023-02-14T02:14:15.538Z,840.97
2023-02-14T02:19:49.419Z,811.75
2023-02-14T02:22:51.263Z,806.13
2023-02-14T02:25:41.869Z,321.42
2023-02-14T02:28:38.695Z,722.28
2023-02-14T02:31:32.452Z,237.02
2023-02-14T02:34:19.789Z,274.05
2023-02-14T02:37:13.806Z,574.55
2023-02-14T02:39:59.152Z,718.75
2023-02-14T02:42:35.322Z,643.10
2023-02-14T02:45:13.140Z,368.58
2023-02-14T02:47:45.700Z,469.60
2023-02-14T02:50:41.157Z,462.83
2023-02-14T02:53:21.299Z,248.65
2023-02-14T02:56:12.062Z,350.30
2023-02-14T02:58:43.980Z,556.60
2023-02-14T03:01:15.347Z,238.38
2023-02-14T03:04:05.634Z,414.65
2023-02-14T03:06:35.094Z,475.80
2023-02-14T03:09:13.319Z,673.75
2023-02-14T03:11:49.922Z,743.28
2023-02-14T03:14:21.578Z,693.10
2023-02-14T03:17:05.010Z,408.20
2023-02-14T03:20:00.491Z,792.63
2023-02-14T03:22:40.573Z,808.63
2023-02-14T03:25:18.714Z,879.58
2023-02-14T03:27:51.042Z,601.00
2023-02-14T03:30:26.740Z,617.42
2023-02-14T03:33:00.931Z,366.45
2023-02-14T03:35:33.593Z,311.65
2023-02-14T03:38:09.304Z,248.45
2023-02-14T03:40:43.645Z,264.80
2023-02-14T03:43:15.073Z,334.15
2023-02-14T03:45:48.701Z,288.58
2023-02-14T03:48:18.664Z,250.00
2023-02-14T03:50:48.944Z,286.98
2023-02-14T03:53:21.256Z,247.70
2023-02-14T03:56:02.782Z,298.33
2023-02-14T03:58:35.366Z,690.55
2023-02-14T04:01:09.149Z,424.77
2023-02-14T04:03:45.283Z,447.40
2023-02-14T04:06:13.392Z,286.83
2023-02-14T04:08:41.206Z,202.35
2023-02-14T04:11:10.435Z,471.77
2023-02-14T04:13:40.068Z,320.20
2023-02-14T04:16:08.437Z,288.60
2023-02-14T04:18:53.932Z,297.67
2023-02-14T04:21:21.780Z,206.82
2023-02-14T04:23:49.531Z,284.35
2023-02-14T04:26:18.796Z,701.72
2023-02-14T04:28:46.644Z,404.60
2023-02-14T04:31:14.569Z,408.15
2023-02-14T04:33:42.668Z,349.45
2023-02-14T04:36:10.968Z,427.90
2023-02-14T04:38:38.759Z,543.20
2023-02-14T04:41:06.857Z,225.93
2023-02-14T04:43:36.004Z,249.02
2023-02-14T04:46:03.794Z,222.25
2023-02-14T04:48:31.757Z,240.23
2023-02-14T04:51:00.056Z,184.20
2023-02-14T04:53:28.286Z,271.88
2023-02-14T04:55:56.172Z,153.73
2023-02-14T04:58:24.208Z,219.02
2023-02-14T05:00:53.643Z,154.93
2023-02-14T05:03:21.620Z,162.13
2023-02-14T05:05:49.421Z,198.85
2023-02-14T05:08:17.222Z,161.65
2023-02-14T05:10:44.990Z,303.70
2023-02-14T05:13:12.687Z,227.63
2023-02-14T05:15:40.577Z,187.93
2023-02-14T05:18:10.459Z,244.35
2023-02-14T05:20:40.754Z,347.85
2023-02-14T05:23:13.737Z,317.27
2023-02-14T05:25:41.721Z,480.67
2023-02-14T05:28:10.019Z,231.60
2023-02-14T05:30:39.690Z,255.90
2023-02-14T05:33:11.076Z,182.32
2023-02-14T05:35:38.983Z,145.02
2023-02-14T05:38:07.070Z,150.70
2023-02-14T05:40:34.932Z,138.07
2023-02-14T05:43:02.934Z,126.55
2023-02-14T05:45:31.008Z,164.68
2023-02-14T05:48:00.927Z,160.57
2023-02-14T05:50:31.173Z,216.85
2023-02-14T05:52:59.136Z,163.13
2023-02-14T05:55:27.267Z,162.10
2023-02-14T05:57:55.257Z,169.98
2023-02-14T06:00:25.039Z,136.73
2023-02-14T06:02:52.866Z,125.10
2023-02-14T06:05:20.772Z,119.30
2023-02-14T06:07:51.410Z,237.55
2023-02-14T06:10:19.951Z,142.23
2023-02-14T06:12:50.125Z,142.57
2023-02-14T06:15:18.264Z,108.90
2023-02-14T06:17:47.257Z,118.60
2023-02-14T06:20:15.248Z,122.20
2023-02-14T06:22:43.328Z,141.27
2023-02-14T06:25:12.591Z,122.45
2023-02-14T06:27:40.719Z,124.85
2023-02-14T06:30:10.201Z,124.95
2023-02-14T06:32:38.113Z,115.72
2023-02-14T06:35:06.629Z,118.85
2023-02-14T06:37:34.701Z,138.80
2023-02-14T06:40:02.809Z,131.93
2023-02-14T06:42:31.980Z,116.65
2023-02-14T06:44:59.953Z,121.28
2023-02-14T06:47:28.043Z,130.57
2023-02-14T06:49:55.893Z,130.07
2023-02-14T06:52:23.672Z,109.55
2023-02-14T06:54:51.446Z,151.80
2023-02-14T06:57:19.279Z,142.77
2023-02-14T06:59:48.627Z,138.93
2023-02-14T07:02:16.513Z,121.25
2023-02-14T07:04:44.366Z,153.35
2023-02-14T07:07:12.251Z,111.50
2023-02-14T07:09:40.208Z,150.32
2023-02-14T07:12:08.370Z,121.90
2023-02-14T07:14:37.486Z,127.80
2023-02-14T07:17:06.772Z,115.97
2023-02-14T07:19:34.776Z,135.43
2023-02-14T07:22:02.521Z,167.25
2023-02-14T07:24:30.435Z,168.95
2023-02-14T07:26:58.325Z,122.55
2023-02-14T07:29:26.262Z,103.30
2023-02-14T07:31:54.255Z,166.18
2023-02-14T07:34:23.630Z,147.43
2023-02-14T07:36:51.427Z,111.10
2023-02-14T07:39:19.229Z,220.30
2023-02-14T07:41:47.167Z,312.58
2023-02-14T07:44:14.957Z,266.65
2023-02-14T07:46:42.863Z,235.43
2023-02-14T07:49:10.741Z,166.30
2023-02-14T07:51:40.260Z,256.55
2023-02-14T07:54:08.235Z,140.82
2023-02-14T07:56:36.328Z,125.03
2023-02-14T07:59:04.355Z,119.25
2023-02-14T08:01:32.167Z,162.30
2023-02-14T08:04:00.128Z,121.25
2023-02-14T08:06:28.027Z,116.93
2023-02-14T08:08:57.255Z,214.88
2023-02-14T08:11:42.660Z,148.93
2023-02-14T08:14:10.501Z,154.85
2023-02-14T08:16:39.725Z,256.63
2023-02-14T08:19:07.642Z,318.45
2023-02-14T08:21:35.772Z,135.20
2023-02-14T08:24:05.607Z,143.32
2023-02-14T08:26:33.672Z,132.32
2023-02-14T08:29:03.125Z,93.38
2023-02-14T08:31:35.964Z,244.73
2023-02-14T08:34:05.066Z,144.63
2023-02-14T08:36:33.284Z,160.20
2023-02-14T08:39:01.467Z,187.70
2023-02-14T08:41:30.660Z,91.07
2023-02-14T08:43:58.495Z,113.00
2023-02-14T08:46:26.541Z,78.13
2023-02-14T08:48:54.878Z,85.05
2023-02-14T08:51:23.012Z,81.93
2023-02-14T08:53:51.696Z,77.13
2023-02-14T08:56:21.368Z,75.80
2023-02-14T08:58:53.349Z,157.05
2023-02-14T09:03:49.730Z,113.28
2023-02-14T09:06:18.394Z,155.23
2023-02-14T09:08:46.793Z,76.10
2023-02-14T09:11:18.498Z,77.97
2023-02-14T09:13:47.702Z,79.90
2023-02-14T09:16:19.050Z,81.72
2023-02-14T09:18:48.533Z,77.85
2023-02-14T09:21:20.352Z,69.30
2023-02-14T09:23:48.211Z,79.13
2023-02-14T09:26:17.621Z,78.22
2023-02-14T09:28:45.858Z,95.60
2023-02-14T09:31:17.229Z,98.28
2023-02-14T09:33:46.298Z,94.45
2023-02-14T09:36:31.853Z,123.18
2023-02-14T09:38:59.632Z,64.78
2023-02-14T09:41:43.601Z,122.82
2023-02-14T09:44:19.892Z,84.07
2023-02-14T09:46:53.551Z,100.18
2023-02-14T09:49:29.842Z,115.53
2023-02-14T09:51:58.543Z,92.43
2023-02-14T09:54:29.061Z,75.90
2023-02-14T09:57:02.729Z,87.72
2023-02-14T09:59:36.937Z,101.05
2023-02-14T10:02:26.176Z,91.00
2023-02-14T10:05:03.261Z,81.32
2023-02-14T10:07:38.703Z,71.85
2023-02-14T10:10:14.853Z,70.88
2023-02-14T10:12:49.107Z,73.80
2023-02-14T10:15:20.169Z,79.55
2023-02-14T10:17:54.628Z,74.07
2023-02-14T10:20:27.281Z,61.92
2023-02-14T10:23:04.670Z,71.03
2023-02-14T10:25:38.538Z,60.60
2023-02-14T10:28:07.223Z,62.30
2023-02-14T10:30:39.983Z,57.28
2023-02-14T10:33:16.677Z,60.03
2023-02-14T10:35:49.135Z,74.95
2023-02-14T10:38:29.329Z,78.35
2023-02-14T10:41:19.617Z,88.07
2023-02-14T10:43:54.983Z,76.38
2023-02-14T10:46:34.272Z,76.10
2023-02-14T10:49:14.373Z,72.88
2023-02-14T10:51:47.003Z,76.05
2023-02-14T10:54:21.580Z,73.15
2023-02-14T10:56:55.341Z,71.78
2023-02-14T10:59:28.938Z,80.53
2023-02-14T11:01:59.960Z,75.40
2023-02-14T11:04:30.967Z,74.47
2023-02-14T11:06:58.715Z,78.05
2023-02-14T11:09:26.465Z,75.30
2023-02-14T11:11:57.394Z,70.53
2023-02-14T11:14:30.036Z,71.40
2023-02-14T11:16:59.708Z,69.63
2023-02-14T11:19:31.024Z,68.88
2023-02-14T11:22:00.820Z,80.45
2023-02-14T11:24:31.289Z,78.03
2023-02-14T11:27:02.848Z,69.25
2023-02-14T11:29:32.784Z,74.05
2023-02-14T11:32:09.339Z,69.25
2023-02-14T11:34:41.800Z,70.60
2023-02-14T11:37:26.320Z,69.88
2023-02-14T11:39:56.005Z,68.13
2023-02-14T11:42:42.632Z,63.67
2023-02-14T11:45:28.641Z,70.93
2023-02-14T11:48:10.567Z,73.25
2023-02-14T11:50:40.459Z,66.97
2023-02-14T11:53:13.124Z,68.88
2023-02-14T11:55:42.178Z,63.08
2023-02-14T11:58:29.921Z,68.03
2023-02-14T12:00:57.936Z,71.15
2023-02-14T12:03:28.229Z,70.97
2023-02-14T12:06:00.758Z,69.03
2023-02-14T12:08:31.786Z,65.43
2023-02-14T12:11:04.404Z,67.43
2023-02-14T12:13:33.645Z,69.25
2023-02-14T12:16:01.528Z,66.10
2023-02-14T12:18:41.977Z,55.03
2023-02-14T12:21:26.025Z,51.83
2023-02-14T12:24:03.350Z,51.38
2023-02-14T12:26:34.935Z,48.45
2023-02-14T12:29:10.920Z,44.40
2023-02-14T12:31:38.795Z,45.83
2023-02-14T12:34:07.273Z,43.05
2023-02-14T12:36:47.078Z,45.13
2023-02-14T12:39:26.852Z,42.65
2023-02-14T12:42:03.504Z,38.17
2023-02-14T12:44:45.202Z,40.80
2023-02-14T12:47:20.308Z,45.38
2023-02-14T12:50:18.602Z,41.08
2023-02-14T12:53:02.417Z,40.28
2023-02-14T12:55:47.057Z,42.72
2023-02-14T12:58:25.227Z,42.50
2023-02-14T13:01:06.352Z,43.05
2023-02-14T13:04:01.075Z,44.20
2023-02-14T13:06:31.562Z,45.20
2023-02-14T13:09:14.863Z,44.97
2023-02-14T13:11:53.050Z,52.13
2023-02-14T13:14:37.901Z,45.85
2023-02-14T13:17:13.236Z,49.20
2023-02-14T13:19:49.173Z,48.33
2023-02-14T13:22:21.655Z,52.80
2023-02-14T13:24:54.821Z,48.47
2023-02-14T13:27:24.913Z,48.78
2023-02-14T13:29:59.210Z,48.08
2023-02-14T13:32:30.583Z,52.85
2023-02-14T13:34:59.603Z,52.25
2023-02-14T13:37:29.530Z,50.47
2023-02-14T13:40:02.421Z,55.08
2023-02-14T13:42:56.494Z,60.75
2023-02-14T13:46:06.843Z,54.55
2023-02-14T13:48:34.800Z,53.33
2023-02-14T13:51:05.082Z,58.03
2023-02-14T13:53:39.486Z,59.60
2023-02-14T13:56:34.002Z,58.35
2023-02-14T13:59:05.489Z,54.80
2023-02-14T14:01:36.917Z,56.28
2023-02-14T14:04:07.478Z,60.25
2023-02-14T14:07:13.939Z,61.30
2023-02-14T14:10:32.343Z,57.60
2023-02-14T14:13:01.500Z,56.25
2023-02-14T14:15:29.701Z,65.45
2023-02-14T14:18:32.924Z,54.22
2023-02-14T14:21:00.770Z,58.72
2023-02-14T14:23:34.428Z,56.05
2023-02-14T14:26:03.369Z,57.92
2023-02-14T14:28:34.207Z,63.28
2023-02-14T14:31:02.217Z,63.15
2023-02-14T14:33:32.286Z,53.88
2023-02-14T14:36:02.827Z,62.33
2023-02-14T14:38:32.105Z,58.17
2023-02-14T14:41:01.215Z,60.47
2023-02-14T14:43:34.755Z,62.60
2023-02-14T14:46:04.114Z,60.10
2023-02-14T14:48:34.739Z,64.47
2023-02-14T14:51:05.196Z,60.65
2023-02-14T14:53:42.106Z,61.75
2023-02-14T14:56:13.992Z,59.30
2023-02-14T14:58:43.265Z,70.28
2023-02-14T15:01:21.179Z,59.42
2023-02-14T15:03:49.982Z,59.20
2023-02-14T15:06:20.776Z,62.08
2023-02-14T15:08:51.492Z,63.80
2023-02-14T15:11:41.547Z,64.65
2023-02-14T15:14:16.504Z,68.57
2023-02-14T15:16:48.813Z,57.78
2023-02-14T15:19:22.191Z,59.50
2023-02-14T15:21:50.988Z,63.13
2023-02-14T15:24:20.515Z,61.30
2023-02-14T15:26:53.356Z,60.92
2023-02-14T15:29:24.959Z,60.85
2023-02-14T15:31:53.907Z,63.03
2023-02-14T15:34:31.089Z,61.75
2023-02-14T15:37:03.969Z,64.13
2023-02-14T15:39:37.832Z,62.33
2023-02-14T15:42:06.975Z,61.63
2023-02-14T15:44:36.278Z,60.95
2023-02-14T15:47:06.801Z,58.63
2023-02-14T15:49:37.237Z,57.53
2023-02-14T15:52:06.738Z,55.10
2023-02-14T15:54:38.964Z,66.45
2023-02-14T15:57:08.802Z,61.85
2023-02-14T15:59:42.775Z,62.42
2023-02-14T16:02:25.745Z,64.43
2023-02-14T16:04:53.855Z,65.95
2023-02-14T16:07:25.462Z,61.17
2023-02-14T16:10:24.096Z,65.70
2023-02-14T16:12:57.721Z,58.28
2023-02-14T16:15:28.811Z,61.65
2023-02-14T16:17:56.817Z,65.40
2023-02-14T16:20:30.345Z,59.28
2023-02-14T16:23:21.942Z,68.60
2023-02-14T16:25:50.939Z,61.70
2023-02-14T16:28:19.133Z,65.45
2023-02-14T16:30:54.072Z,67.90
2023-02-14T16:33:24.241Z,66.65
2023-02-14T16:35:52.370Z,60.35
2023-02-14T16:38:21.662Z,70.10
2023-02-14T16:40:51.911Z,57.70
2023-02-14T16:43:21.369Z,62.53
2023-02-14T16:45:50.726Z,68.88
2023-02-14T16:48:18.744Z,68.40
2023-02-14T16:50:47.578Z,65.20
2023-02-14T16:53:26.626Z,68.60
2023-02-14T16:55:56.964Z,62.78
2023-02-14T16:58:28.253Z,64.30
2023-02-14T17:00:58.733Z,63.15
2023-02-14T17:03:26.782Z,58.42
2023-02-14T17:05:56.011Z,63.08
2023-02-14T17:08:24.055Z,65.13
2023-02-14T17:10:52.371Z,64.85
2023-02-14T17:13:24.005Z,65.45
2023-02-14T17:15:52.253Z,65.45
2023-02-14T17:18:24.385Z,67.20
2023-02-14T17:23:20.817Z,65.45
2023-02-14T17:25:49.154Z,66.38
2023-02-14T17:28:17.231Z,59.50
2023-02-14T17:30:45.046Z,67.03
2023-02-14T17:33:13.502Z,62.95
2023-02-14T17:35:42.751Z,64.70
2023-02-14T17:38:10.981Z,64.40
2023-02-14T17:40:38.850Z,61.72
2023-02-14T17:43:07.177Z,64.60
2023-02-14T17:45:36.473Z,77.85
2023-02-14T17:48:04.358Z,73.65
2023-02-14T17:50:32.081Z,68.93
2023-02-14T17:53:01.214Z,79.07
2023-02-14T17:55:29.009Z,76.18
2023-02-14T17:57:56.881Z,71.60
2023-02-14T18:00:25.419Z,64.88
2023-02-14T18:02:53.198Z,69.93
2023-02-14T18:05:21.064Z,71.40
2023-02-14T18:07:48.810Z,67.43
2023-02-14T18:10:18.288Z,69.90
2023-02-14T18:12:46.153Z,68.85
2023-02-14T18:15:13.964Z,79.45
2023-02-14T18:17:41.914Z,68.43
2023-02-14T18:20:10.732Z,76.50
2023-02-14T18:22:38.535Z,77.80
2023-02-14T18:25:07.563Z,76.47
2023-02-14T18:27:36.685Z,81.88
2023-02-14T18:30:05.179Z,78.30
2023-02-14T18:32:33.177Z,82.80
2023-02-14T18:35:01.559Z,76.80
2023-02-14T18:37:29.416Z,78.70
2023-02-14T18:39:57.153Z,80.53
2023-02-14T18:42:24.865Z,82.07
2023-02-14T18:44:54.793Z,78.60
2023-02-14T18:47:22.678Z,75.50
2023-02-14T18:49:50.724Z,74.80
2023-02-14T18:52:18.467Z,76.60
2023-02-14T18:54:46.321Z,75.18
2023-02-14T18:57:14.131Z,77.80
2023-02-14T18:59:41.866Z,76.00
2023-02-14T19:02:12.067Z,79.65
2023-02-14T19:04:39.919Z,81.32
2023-02-14T19:07:07.720Z,82.78
2023-02-14T19:09:39.449Z,85.95
2023-02-14T19:12:07.661Z,80.70
2023-02-14T19:14:35.607Z,76.28
2023-02-14T19:17:04.588Z,71.32
2023-02-14T19:19:33.876Z,76.93
2023-02-14T19:22:02.213Z,74.07
2023-02-14T19:24:30.029Z,78.28
2023-02-14T19:26:57.872Z,87.00
2023-02-14T19:29:25.651Z,76.40
2023-02-14T19:31:54.805Z,80.47
2023-02-14T19:34:28.922Z,82.45
2023-02-14T19:37:00.512Z,85.68
2023-02-14T19:39:30.454Z,63.72
2023-02-14T19:41:59.170Z,85.70
2023-02-14T19:44:28.821Z,79.07
2023-02-14T19:46:59.857Z,82.85
2023-02-14T19:49:29.257Z,89.17
2023-02-14T19:51:59.725Z,88.82
2023-02-14T19:54:27.553Z,92.55
2023-02-14T19:56:56.490Z,94.07
2023-02-14T19:59:24.415Z,90.13
2023-02-14T20:01:54.440Z,95.03
2023-02-14T20:04:24.332Z,101.20
2023-02-14T20:06:54.386Z,91.50
2023-02-14T20:09:24.713Z,112.30
2023-02-14T20:11:54.773Z,108.75
2023-02-14T20:14:24.481Z,113.57
2023-02-14T20:16:53.578Z,110.40
2023-02-14T20:19:24.349Z,113.13
2023-02-14T20:21:52.420Z,113.72
2023-02-14T20:24:23.425Z,121.68
2023-02-14T20:26:53.592Z,108.00
2023-02-14T20:29:22.275Z,115.88
2023-02-14T20:31:52.553Z,112.18
2023-02-14T20:34:21.327Z,109.00
2023-02-14T20:36:53.189Z,103.35
2023-02-14T20:41:49.969Z,108.05
2023-02-14T20:44:21.616Z,111.35
2023-02-14T20:46:51.608Z,120.60
2023-02-14T20:49:19.812Z,109.93
2023-02-14T20:51:49.616Z,106.97
2023-02-14T20:54:18.175Z,107.18
2023-02-14T20:56:46.018Z,110.03
2023-02-14T20:59:14.516Z,102.55
2023-02-14T21:01:43.703Z,119.05
2023-02-14T21:04:11.568Z,114.72
2023-02-14T21:06:40.170Z,105.68
2023-02-14T21:09:08.630Z,134.77
2023-02-14T21:11:36.804Z,146.07
2023-02-14T21:14:04.797Z,193.13
2023-02-14T21:16:32.756Z,352.65
2023-02-14T21:19:02.063Z,709.78
2023-02-14T21:21:34.778Z,510.63
2023-02-14T21:24:06.008Z,707.03
2023-02-14T21:26:33.976Z,719.08
2023-02-14T21:29:02.707Z,218.50
2023-02-14T21:31:32.519Z,482.75
2023-02-14T21:34:03.251Z,559.97
2023-02-14T21:36:35.225Z,506.10
2023-02-14T21:41:32.071Z,166.57
2023-02-14T21:44:01.111Z,314.10
2023-02-14T21:46:31.088Z,491.77
2023-02-14T21:49:19.951Z,330.70
2023-02-14T21:51:48.279Z,195.90
2023-02-14T21:54:16.747Z,532.15
2023-02-14T21:56:44.762Z,482.08
2023-02-14T21:59:12.944Z,447.67
2023-02-14T22:01:42.940Z,622.28
2023-02-14T22:04:14.313Z,569.13
2023-02-14T22:06:47.132Z,494.05
2023-02-14T22:09:19.016Z,718.10
2023-02-14T22:11:47.579Z,352.25
2023-02-14T22:14:16.325Z,170.23
2023-02-14T22:16:44.244Z,197.63
2023-02-14T22:19:16.285Z,222.95
2023-02-14T22:24:12.743Z,532.85
2023-02-14T22:26:41.738Z,597.42
2023-02-14T22:29:11.341Z,634.72
2023-02-14T22:31:41.188Z,378.27
2023-02-14T22:34:15.303Z,298.20
2023-02-14T22:36:43.405Z,252.77
2023-02-14T22:39:13.488Z,260.10
2023-02-14T22:41:41.434Z,297.48
2023-02-14T22:44:09.716Z,578.42
2023-02-14T22:46:40.450Z,562.85
2023-02-14T22:49:09.044Z,706.08
2023-02-14T22:51:40.619Z,368.77
2023-02-14T22:54:15.383Z,795.53
2023-02-14T22:56:44.642Z,607.53
2023-02-14T22:59:16.238Z,297.58
2023-02-14T23:01:45.447Z,220.48
2023-02-14T23:04:14.344Z,222.40
2023-02-14T23:06:45.062Z,854.38
2023-02-14T23:09:14.177Z,188.05
2023-02-14T23:11:44.439Z,283.95
2023-02-14T23:14:31.421Z,522.95
2023-02-14T23:17:17.193Z,762.80
2023-02-14T23:20:03.513Z,317.98
2023-02-14T23:22:35.041Z,226.73
2023-02-14T23:25:04.629Z,505.50
2023-02-14T23:27:35.308Z,286.98
2023-02-14T23:30:03.942Z,368.92
2023-02-14T23:32:31.816Z,349.38
2023-02-14T23:35:00.053Z,1008.28
2023-02-14T23:37:28.060Z,289.85
2023-02-14T23:39:57.223Z,704.10
2023-02-14T23:42:24.944Z,978.30
2023-02-14T23:44:52.789Z,1064.75
2023-02-14T23:47:20.988Z,321.10
2023-02-14T23:49:48.722Z,661.78
2023-02-14T23:52:16.433Z,484.58
2023-02-14T23:54:44.186Z,512.08
2023-02-14T23:57:13.351Z,345.98
2023-02-14T23:59:41.155Z,364.80
